Leeper, PA (16233)

4:53 AM EDT on August 29, 2015 (GMT -0400)
Penn Oaks Campground | | Change Station
CLOSE
Current Station
Personal Weather Station
Location: Leeper, PA
Elevation: 1621 ft
Nearby Weather Stations

Elev 1621 ft 41.37 °N, 79.29 °W | Updated 29 seconds ago

Clear
Clear
49.8 °F
Feels Like 50 °F
N
0.0
Wind Variable Wind from WNW
Gusts 0.0 mph

Today
High -- | Low -- °F
--% Chance of Precip.
Yesterday
High -- | Low -- °F
Precip. -- in
6:40 AM 7:55 PM
Full, 100% visible
Pressure 30.17 in
Visibility 9.0 miles
Clouds Clear
Windchill 50 °F
Dew Point 49 °F
Humidity 97%
Rainfall 0.00 in
Snow Depth Not available.
UV 0 out of 12
Pollen 9.80 out of 12
Air Quality Not available.
Flu Activity Not available.
METAR KDUJ 290753Z AUTO 08003KT 9SM CLR 13/11 A3019 RMK AO2 SLP216 T01330111
Pressure 30.17 in
Visibility 9.0 miles
Clouds Clear
Windchill 50 °F
Dew Point 49 °F
Humidity 97%
Rainfall 0.00 in
Snow Depth Not available.
UV 0 out of 12
Pollen 9.80 out of 12
Air Quality Not available.
Flu Activity Not available.
METAR KDUJ 290753Z AUTO 08003KT 9SM CLR 13/11 A3019 RMK AO2 SLP216 T01330111

10-Day Weather Forecast

×

Almanac

Astronomy

Aug. 29, 2015 Rise Set
Actual Time
Civil Twilight
Nautical Twilight
Astronomical Twilight
Moon
Length of Visible Light
Length of Day
Tomorrow will be .
, % of the Moon is Illuminated

Today's Extremes

State Highs State Lows

Community

WunderPhotos

Upload Photos

1,850,634 photos uploaded!

WunderBlogs® & News

Nearby

Air Quality

  Air Quality AQ Index Pollutant
Not available.

Snow Depth

Station Depth Elevation

Earthquake Activity

City Distance Mag. Time & Date
Minimum magnitude displayed is 2.5.

Coastal Water Temperatures

Place Temperature

Stations

Nearby Weather Stations

Station Location Temp. Windchill Dew Point Humidity Wind Precip. Elev Updated Type